VTK601 UHHH-UHMM
Flight info
| Callsign | VTK601 |
|---|---|
| Flight time | 2h 13m |
| Altitude | 35000 |
| Route | TOMSU2U TOMSU N222 NA L160 KIZON/K0891F370 L160 BANOT BANOT5K |
| Aircraft | MD11/H-SDE1E2E3FGHIJ2J3J4J5M1RWXY/LB1D1 |
Departure
| Time | 2026-04-22 04:55 |
|---|---|
| Airport | Khabarovsk Novy Airport (UHHH) |
Arrival
| Time | 2026-04-22 07:08 |
|---|---|
| Airport | Sokol Airport (UHMM) |
| Time | Latitude | Longitude | Altitude | Speed | Heading |
|---|---|---|---|---|---|
| 2026-04-22 04:40 | 48.52412 | 135.17378 | 226 ft | 0 kts | 312° |
| 2026-04-22 04:48 | 48.52427 | 135.17357 | 253 ft | 8 kts | 323° |
| 2026-04-22 04:48 | 48.52503 | 135.17375 | 253 ft | 16 kts | 30° |
| 2026-04-22 04:49 | 48.52611 | 135.17502 | 252 ft | 19 kts | 40° |
| 2026-04-22 04:49 | 48.52710 | 135.17542 | 251 ft | 16 kts | 356° |
| 2026-04-22 04:49 | 48.52829 | 135.17600 | 250 ft | 21 kts | 39° |
| 2026-04-22 04:49 | 48.52926 | 135.17776 | 251 ft | 22 kts | 80° |
| 2026-04-22 04:50 | 48.52846 | 135.17941 | 251 ft | 21 kts | 134° |
| 2026-04-22 04:50 | 48.52734 | 135.18117 | 251 ft | 25 kts | 133° |
| 2026-04-22 04:50 | 48.52667 | 135.18322 | 251 ft | 21 kts | 75° |
| 2026-04-22 04:50 | 48.52760 | 135.18505 | 254 ft | 23 kts | 43° |
| 2026-04-22 04:51 | 48.52885 | 135.18676 | 255 ft | 26 kts | 41° |
| 2026-04-22 04:51 | 48.53022 | 135.18861 | 256 ft | 27 kts | 42° |
| 2026-04-22 04:51 | 48.53167 | 135.19056 | 259 ft | 29 kts | 41° |
| 2026-04-22 04:51 | 48.53320 | 135.19263 | 260 ft | 30 kts | 41° |
| 2026-04-22 04:52 | 48.53484 | 135.19484 | 254 ft | 33 kts | 41° |
| 2026-04-22 04:52 | 48.53656 | 135.19722 | 249 ft | 32 kts | 43° |
| 2026-04-22 04:52 | 48.53796 | 135.19919 | 245 ft | 19 kts | 43° |
| 2026-04-22 04:52 | 48.53846 | 135.19988 | 244 ft | 5 kts | 43° |
| 2026-04-22 04:53 | 48.53875 | 135.20029 | 243 ft | 6 kts | 43° |
| 2026-04-22 04:53 | 48.53896 | 135.20064 | 243 ft | 2 kts | 58° |
| 2026-04-22 04:53 | 48.53906 | 135.20089 | 243 ft | 6 kts | 61° |
| 2026-04-22 04:53 | 48.53928 | 135.20148 | 243 ft | 3 kts | 43° |
| 2026-04-22 04:54 | 48.53941 | 135.20148 | 243 ft | 3 kts | 357° |
| 2026-04-22 04:54 | 48.53950 | 135.20131 | 243 ft | 1 kts | 296° |
| 2026-04-22 04:54 | 48.53947 | 135.20120 | 243 ft | 1 kts | 254° |
| 2026-04-22 04:54 | 48.53941 | 135.20115 | 243 ft | 2 kts | 223° |
| 2026-04-22 04:55 | 48.53847 | 135.19986 | 244 ft | 55 kts | 222° |
| 2026-04-22 04:55 | 48.53341 | 135.19298 | 257 ft | 137 kts | 222° |
| 2026-04-22 04:55 | 48.52497 | 135.18156 | 562 ft | 171 kts | 221° |
| 2026-04-22 04:55 | 48.51597 | 135.16955 | 1562 ft | 175 kts | 224° |
| 2026-04-22 04:56 | 48.50681 | 135.15709 | 2478 ft | 180 kts | 224° |
| 2026-04-22 04:56 | 48.49739 | 135.14415 | 3298 ft | 193 kts | 225° |
| 2026-04-22 04:56 | 48.48656 | 135.12917 | 3497 ft | 229 kts | 225° |
| 2026-04-22 04:56 | 48.47414 | 135.11209 | 3663 ft | 252 kts | 225° |
| 2026-04-22 04:57 | 48.46091 | 135.09401 | 4298 ft | 257 kts | 224° |
| 2026-04-22 04:57 | 48.44759 | 135.07577 | 5152 ft | 260 kts | 224° |
| 2026-04-22 04:57 | 48.43463 | 135.05680 | 6030 ft | 261 kts | 232° |
| 2026-04-22 04:57 | 48.42580 | 135.03339 | 6907 ft | 258 kts | 255° |
| 2026-04-22 04:58 | 48.42449 | 135.00662 | 7707 ft | 260 kts | 281° |
| 2026-04-22 04:58 | 48.43172 | 134.98188 | 8580 ft | 262 kts | 308° |
| 2026-04-22 04:58 | 48.44598 | 134.96470 | 9443 ft | 268 kts | 335° |
| 2026-04-22 04:58 | 48.46432 | 134.95661 | 9896 ft | 288 kts | 347° |
| 2026-04-22 04:59 | 48.48499 | 134.95179 | 10051 ft | 315 kts | 352° |
| 2026-04-22 04:59 | 48.50752 | 134.94737 | 10194 ft | 338 kts | 351° |
| 2026-04-22 04:59 | 48.53114 | 134.94276 | 10850 ft | 348 kts | 351° |
| 2026-04-22 04:59 | 48.55516 | 134.93788 | 11729 ft | 350 kts | 351° |
| 2026-04-22 05:00 | 48.57947 | 134.93286 | 12546 ft | 354 kts | 351° |
| 2026-04-22 05:00 | 48.60408 | 134.92787 | 13412 ft | 358 kts | 351° |
| 2026-04-22 05:00 | 48.62892 | 134.92261 | 14126 ft | 363 kts | 351° |
| 2026-04-22 05:00 | 48.65413 | 134.91773 | 14792 ft | 368 kts | 354° |
| 2026-04-22 05:01 | 48.67988 | 134.91821 | 15443 ft | 374 kts | 7° |
| 2026-04-22 05:01 | 48.70501 | 134.92918 | 16139 ft | 381 kts | 24° |
| 2026-04-22 05:01 | 48.72694 | 134.95171 | 16656 ft | 385 kts | 43° |
| 2026-04-22 05:01 | 48.74336 | 134.98419 | 17189 ft | 393 kts | 60° |
| 2026-04-22 05:02 | 48.75508 | 135.02189 | 17860 ft | 398 kts | 67° |
| 2026-04-22 05:02 | 48.76518 | 135.06116 | 18408 ft | 402 kts | 69° |
| 2026-04-22 05:02 | 48.77502 | 135.10104 | 19030 ft | 405 kts | 69° |
| 2026-04-22 05:02 | 48.78517 | 135.14100 | 19559 ft | 408 kts | 68° |
| 2026-04-22 05:03 | 48.79568 | 135.18117 | 20157 ft | 412 kts | 67° |
| 2026-04-22 05:03 | 48.80651 | 135.22159 | 20736 ft | 416 kts | 67° |
| 2026-04-22 05:03 | 48.81759 | 135.26230 | 21305 ft | 419 kts | 66° |
| 2026-04-22 05:03 | 48.82885 | 135.30334 | 21909 ft | 423 kts | 66° |
| 2026-04-22 05:04 | 48.84009 | 135.34424 | 22485 ft | 427 kts | 66° |
| 2026-04-22 05:04 | 48.85160 | 135.38603 | 23075 ft | 431 kts | 66° |
| 2026-04-22 05:04 | 48.86322 | 135.42831 | 23584 ft | 435 kts | 66° |
| 2026-04-22 05:04 | 48.87488 | 135.47086 | 24071 ft | 438 kts | 66° |
| 2026-04-22 05:05 | 48.88659 | 135.51372 | 24568 ft | 441 kts | 66° |
| 2026-04-22 05:05 | 48.89837 | 135.55689 | 25053 ft | 444 kts | 66° |
| 2026-04-22 05:05 | 48.91022 | 135.60037 | 25532 ft | 447 kts | 66° |
| 2026-04-22 05:05 | 48.92213 | 135.64423 | 25980 ft | 450 kts | 66° |
| 2026-04-22 05:06 | 48.93409 | 135.68834 | 26438 ft | 453 kts | 67° |
| 2026-04-22 05:06 | 48.94610 | 135.73268 | 26914 ft | 455 kts | 67° |
| 2026-04-22 05:06 | 48.95819 | 135.77744 | 27359 ft | 458 kts | 67° |
| 2026-04-22 05:06 | 48.97054 | 135.82220 | 27778 ft | 460 kts | 64° |
| 2026-04-22 05:07 | 48.98672 | 135.86411 | 28266 ft | 460 kts | 53° |
| 2026-04-22 05:07 | 49.00745 | 135.90144 | 28638 ft | 463 kts | 46° |
| 2026-04-22 05:07 | 49.03031 | 135.93610 | 29072 ft | 465 kts | 44° |
| 2026-04-22 05:07 | 49.05388 | 135.97001 | 29436 ft | 468 kts | 44° |
| 2026-04-22 05:08 | 49.07762 | 136.00422 | 29836 ft | 470 kts | 44° |
| 2026-04-22 05:08 | 49.10123 | 136.03891 | 30161 ft | 473 kts | 45° |
| 2026-04-22 05:08 | 49.12474 | 136.07416 | 30521 ft | 474 kts | 45° |
| 2026-04-22 05:08 | 49.14811 | 136.10972 | 30939 ft | 473 kts | 46° |
| 2026-04-22 05:09 | 49.17131 | 136.14531 | 31352 ft | 473 kts | 46° |
| 2026-04-22 05:09 | 49.19449 | 136.18103 | 31755 ft | 473 kts | 46° |
| 2026-04-22 05:09 | 49.21767 | 136.21679 | 32157 ft | 473 kts | 46° |
| 2026-04-22 05:09 | 49.24079 | 136.25255 | 32530 ft | 473 kts | 46° |
| 2026-04-22 05:10 | 49.26391 | 136.28834 | 32933 ft | 472 kts | 46° |
| 2026-04-22 05:10 | 49.28699 | 136.32410 | 33324 ft | 472 kts | 46° |
| 2026-04-22 05:10 | 49.31011 | 136.35994 | 33628 ft | 473 kts | 46° |
| 2026-04-22 05:10 | 49.33317 | 136.39576 | 33934 ft | 473 kts | 46° |
| 2026-04-22 05:11 | 49.35629 | 136.43173 | 34150 ft | 474 kts | 46° |
| 2026-04-22 05:11 | 49.37943 | 136.46777 | 34430 ft | 474 kts | 46° |
| 2026-04-22 05:11 | 49.39502 | 136.49210 | 34639 ft | 473 kts | 46° |
| 2026-04-22 05:11 | 49.41809 | 136.52816 | 34859 ft | 474 kts | 46° |
| 2026-04-22 05:12 | 49.45046 | 136.57299 | 35159 ft | 475 kts | 38° |
| 2026-04-22 05:12 | 49.47721 | 136.60278 | 35416 ft | 475 kts | 35° |
| 2026-04-22 05:12 | 49.49576 | 136.62181 | 35580 ft | 475 kts | 34° |
| 2026-04-22 05:12 | 49.52358 | 136.64943 | 35773 ft | 476 kts | 33° |
| 2026-04-22 05:13 | 49.55145 | 136.67697 | 35981 ft | 476 kts | 33° |
| 2026-04-22 05:13 | 49.57931 | 136.70475 | 36182 ft | 477 kts | 34° |
| 2026-04-22 05:13 | 49.60708 | 136.73281 | 36433 ft | 476 kts | 34° |
| 2026-04-22 05:13 | 49.63473 | 136.76102 | 36613 ft | 477 kts | 34° |
| 2026-04-22 05:14 | 49.66250 | 136.78954 | 36658 ft | 481 kts | 34° |
| 2026-04-22 05:14 | 49.71829 | 136.84716 | 36664 ft | 481 kts | 34° |
| 2026-04-22 05:15 | 49.77373 | 136.90456 | 36662 ft | 479 kts | 34° |
| 2026-04-22 05:15 | 49.82908 | 136.96199 | 36665 ft | 479 kts | 35° |
| 2026-04-22 05:16 | 49.88435 | 137.01954 | 36663 ft | 479 kts | 35° |
| 2026-04-22 05:16 | 49.93965 | 137.07728 | 36663 ft | 479 kts | 35° |
| 2026-04-22 05:17 | 49.99444 | 137.13458 | 36665 ft | 478 kts | 35° |
| 2026-04-22 05:17 | 50.04986 | 137.19276 | 36659 ft | 478 kts | 36° |
| 2026-04-22 05:18 | 50.13187 | 137.28004 | 36648 ft | 478 kts | 36° |
| 2026-04-22 05:18 | 50.18647 | 137.33889 | 36654 ft | 475 kts | 37° |
| 2026-04-22 05:19 | 50.24074 | 137.39729 | 36657 ft | 473 kts | 37° |
| 2026-04-22 05:19 | 50.29498 | 137.45573 | 36655 ft | 473 kts | 37° |
| 2026-04-22 05:20 | 50.34912 | 137.51422 | 36638 ft | 473 kts | 37° |
| 2026-04-22 05:20 | 50.40310 | 137.57306 | 36646 ft | 471 kts | 38° |
| 2026-04-22 05:21 | 50.45545 | 137.63503 | 36645 ft | 471 kts | 40° |
| 2026-04-22 05:21 | 50.50711 | 137.69827 | 36644 ft | 471 kts | 40° |
| 2026-04-22 05:22 | 50.55878 | 137.76153 | 36635 ft | 471 kts | 40° |
| 2026-04-22 05:22 | 50.61047 | 137.82469 | 36637 ft | 470 kts | 40° |
| 2026-04-22 05:23 | 50.66208 | 137.88781 | 36640 ft | 470 kts | 40° |
| 2026-04-22 05:23 | 50.71371 | 137.95117 | 36635 ft | 470 kts | 40° |
| 2026-04-22 05:24 | 50.76537 | 138.01469 | 36624 ft | 470 kts | 41° |
| 2026-04-22 05:24 | 50.81690 | 138.07825 | 36628 ft | 469 kts | 41° |
| 2026-04-22 05:25 | 50.86815 | 138.14170 | 36635 ft | 467 kts | 41° |
| 2026-04-22 05:25 | 50.92110 | 138.20199 | 36633 ft | 470 kts | 37° |
| 2026-04-22 05:26 | 50.97587 | 138.25856 | 36632 ft | 470 kts | 36° |
| 2026-04-22 05:26 | 51.03086 | 138.31488 | 36634 ft | 470 kts | 37° |
| 2026-04-22 05:27 | 51.08561 | 138.37154 | 36638 ft | 469 kts | 37° |
| 2026-04-22 05:27 | 51.14028 | 138.42856 | 36641 ft | 470 kts | 37° |
| 2026-04-22 05:28 | 51.19492 | 138.48575 | 36622 ft | 470 kts | 37° |
| 2026-04-22 05:28 | 51.24951 | 138.54299 | 36641 ft | 469 kts | 37° |
| 2026-04-22 05:29 | 51.30402 | 138.60024 | 36646 ft | 469 kts | 37° |
| 2026-04-22 05:29 | 51.35844 | 138.65767 | 36639 ft | 469 kts | 37° |
| 2026-04-22 05:30 | 51.41281 | 138.71520 | 36652 ft | 468 kts | 38° |
| 2026-04-22 05:30 | 51.46692 | 138.77256 | 36660 ft | 466 kts | 38° |
| 2026-04-22 05:31 | 51.52100 | 138.83011 | 36658 ft | 466 kts | 38° |
| 2026-04-22 05:31 | 51.57501 | 138.88777 | 36662 ft | 466 kts | 38° |
| 2026-04-22 05:32 | 51.62884 | 138.94586 | 36661 ft | 466 kts | 38° |
| 2026-04-22 05:32 | 51.68272 | 139.00399 | 36664 ft | 465 kts | 38° |
| 2026-04-22 05:33 | 51.73655 | 139.06205 | 36670 ft | 465 kts | 38° |
| 2026-04-22 05:33 | 51.79038 | 139.12015 | 36670 ft | 465 kts | 38° |
| 2026-04-22 05:34 | 51.84413 | 139.17835 | 36678 ft | 465 kts | 38° |
| 2026-04-22 05:34 | 51.89785 | 139.23667 | 36677 ft | 466 kts | 39° |
| 2026-04-22 05:35 | 51.95159 | 139.29522 | 36680 ft | 465 kts | 39° |
| 2026-04-22 05:35 | 52.00526 | 139.35384 | 36684 ft | 465 kts | 39° |
| 2026-04-22 05:36 | 52.05890 | 139.41264 | 36686 ft | 465 kts | 39° |
| 2026-04-22 05:36 | 52.11254 | 139.47153 | 36687 ft | 464 kts | 39° |
| 2026-04-22 05:37 | 52.16576 | 139.53012 | 36694 ft | 465 kts | 39° |
| 2026-04-22 05:37 | 52.21929 | 139.58930 | 36694 ft | 465 kts | 39° |
| 2026-04-22 05:38 | 52.27273 | 139.64864 | 36696 ft | 465 kts | 39° |
| 2026-04-22 05:38 | 52.32605 | 139.70852 | 36694 ft | 464 kts | 40° |
| 2026-04-22 05:39 | 52.37922 | 139.76810 | 36704 ft | 463 kts | 40° |
| 2026-04-22 05:39 | 52.43247 | 139.82770 | 36705 ft | 463 kts | 40° |
| 2026-04-22 05:40 | 52.48567 | 139.88736 | 36713 ft | 463 kts | 40° |
| 2026-04-22 05:40 | 52.53883 | 139.94714 | 36692 ft | 463 kts | 40° |
| 2026-04-22 05:41 | 52.59192 | 140.00701 | 36721 ft | 462 kts | 40° |
| 2026-04-22 05:41 | 52.64494 | 140.06707 | 36721 ft | 462 kts | 40° |
| 2026-04-22 05:42 | 52.69790 | 140.12724 | 36725 ft | 462 kts | 40° |
| 2026-04-22 05:42 | 52.74997 | 140.18929 | 36734 ft | 461 kts | 41° |
| 2026-04-22 05:43 | 52.80128 | 140.25267 | 36747 ft | 460 kts | 41° |
| 2026-04-22 05:43 | 52.85250 | 140.31606 | 36739 ft | 460 kts | 41° |
| 2026-04-22 05:44 | 52.90387 | 140.37947 | 36752 ft | 461 kts | 41° |
| 2026-04-22 05:44 | 52.95518 | 140.44295 | 36751 ft | 460 kts | 41° |
| 2026-04-22 05:45 | 53.00645 | 140.50653 | 36764 ft | 460 kts | 41° |
| 2026-04-22 05:45 | 53.05760 | 140.57016 | 36762 ft | 459 kts | 41° |
| 2026-04-22 05:46 | 53.10872 | 140.63399 | 36775 ft | 459 kts | 41° |
| 2026-04-22 05:46 | 53.16078 | 140.69578 | 36780 ft | 461 kts | 37° |
| 2026-04-22 05:47 | 53.21539 | 140.75265 | 36769 ft | 463 kts | 36° |
| 2026-04-22 05:47 | 53.27038 | 140.80856 | 36800 ft | 463 kts | 36° |
| 2026-04-22 05:48 | 53.32529 | 140.86499 | 36798 ft | 463 kts | 36° |
| 2026-04-22 05:48 | 53.38006 | 140.92174 | 36804 ft | 464 kts | 36° |
| 2026-04-22 05:49 | 53.43484 | 140.97874 | 36805 ft | 463 kts | 36° |
| 2026-04-22 05:49 | 53.48948 | 141.03576 | 36818 ft | 463 kts | 36° |
| 2026-04-22 05:50 | 53.54414 | 141.09299 | 36817 ft | 463 kts | 36° |
| 2026-04-22 05:50 | 53.59869 | 141.15023 | 36815 ft | 462 kts | 36° |
| 2026-04-22 05:51 | 53.65324 | 141.20773 | 36823 ft | 462 kts | 36° |
| 2026-04-22 05:51 | 53.70722 | 141.26505 | 36834 ft | 461 kts | 36° |
| 2026-04-22 05:52 | 53.76154 | 141.32277 | 36837 ft | 461 kts | 36° |
| 2026-04-22 05:52 | 53.81585 | 141.38045 | 36847 ft | 461 kts | 36° |
| 2026-04-22 05:53 | 53.87016 | 141.43826 | 36849 ft | 461 kts | 36° |
| 2026-04-22 05:53 | 53.92447 | 141.49622 | 36861 ft | 461 kts | 36° |
| 2026-04-22 05:54 | 53.97866 | 141.55422 | 36858 ft | 461 kts | 35° |
| 2026-04-22 05:54 | 54.02367 | 141.60247 | 36856 ft | 460 kts | 36° |
| 2026-04-22 05:55 | 54.07780 | 141.66080 | 36867 ft | 460 kts | 36° |
| 2026-04-22 05:55 | 54.14077 | 141.72888 | 36883 ft | 460 kts | 36° |
| 2026-04-22 05:56 | 54.18602 | 141.77794 | 36872 ft | 460 kts | 35° |
| 2026-04-22 05:56 | 54.24006 | 141.83662 | 36888 ft | 459 kts | 35° |
| 2026-04-22 05:57 | 54.29399 | 141.89539 | 36892 ft | 461 kts | 35° |
| 2026-04-22 05:57 | 54.34768 | 141.95412 | 36908 ft | 461 kts | 35° |
| 2026-04-22 05:58 | 54.40166 | 142.01380 | 36908 ft | 461 kts | 35° |
| 2026-04-22 05:58 | 54.45552 | 142.07360 | 36915 ft | 461 kts | 35° |
| 2026-04-22 05:59 | 54.50947 | 142.13331 | 36917 ft | 461 kts | 35° |
| 2026-04-22 05:59 | 54.56330 | 142.19297 | 36934 ft | 458 kts | 35° |
| 2026-04-22 06:00 | 54.61686 | 142.25245 | 36939 ft | 460 kts | 36° |
| 2026-04-22 06:00 | 54.67023 | 142.31197 | 36944 ft | 457 kts | 36° |
| 2026-04-22 06:01 | 54.72347 | 142.37147 | 36952 ft | 457 kts | 36° |
| 2026-04-22 06:01 | 54.77680 | 142.43131 | 36955 ft | 458 kts | 35° |
| 2026-04-22 06:02 | 54.83056 | 142.49185 | 36964 ft | 460 kts | 35° |
| 2026-04-22 06:02 | 54.88423 | 142.55250 | 36967 ft | 461 kts | 36° |
| 2026-04-22 06:03 | 54.93756 | 142.61284 | 36968 ft | 454 kts | 36° |
| 2026-04-22 06:03 | 54.99029 | 142.67271 | 36981 ft | 454 kts | 35° |
| 2026-04-22 06:04 | 55.04348 | 142.73337 | 36987 ft | 459 kts | 35° |
| 2026-04-22 06:04 | 55.09664 | 142.79458 | 36986 ft | 456 kts | 36° |
| 2026-04-22 06:05 | 55.14939 | 142.85566 | 36994 ft | 454 kts | 36° |
| 2026-04-22 06:05 | 55.20194 | 142.91636 | 37000 ft | 455 kts | 36° |
| 2026-04-22 06:06 | 55.25455 | 142.97784 | 37008 ft | 454 kts | 35° |
| 2026-04-22 06:06 | 55.30755 | 143.04026 | 37004 ft | 462 kts | 35° |
| 2026-04-22 06:07 | 55.36072 | 143.10305 | 37017 ft | 459 kts | 35° |
| 2026-04-22 06:07 | 55.41375 | 143.16588 | 37019 ft | 457 kts | 36° |
| 2026-04-22 06:08 | 55.46630 | 143.22824 | 37032 ft | 455 kts | 35° |
| 2026-04-22 06:08 | 55.51875 | 143.29068 | 37039 ft | 455 kts | 35° |
| 2026-04-22 06:09 | 55.57168 | 143.35392 | 37037 ft | 462 kts | 35° |
| 2026-04-22 06:09 | 55.62463 | 143.41741 | 37053 ft | 458 kts | 35° |
| 2026-04-22 06:10 | 55.67699 | 143.48038 | 37052 ft | 460 kts | 35° |
| 2026-04-22 06:10 | 55.73014 | 143.54453 | 37057 ft | 462 kts | 35° |
| 2026-04-22 06:11 | 55.78326 | 143.60888 | 37059 ft | 462 kts | 35° |
| 2026-04-22 06:11 | 55.83638 | 143.67344 | 37065 ft | 463 kts | 35° |
| 2026-04-22 06:12 | 55.88937 | 143.73805 | 37071 ft | 459 kts | 35° |
| 2026-04-22 06:12 | 55.94158 | 143.80255 | 37076 ft | 457 kts | 36° |
| 2026-04-22 06:13 | 55.99351 | 143.86677 | 37074 ft | 456 kts | 35° |
| 2026-04-22 06:13 | 56.04589 | 143.93143 | 37077 ft | 460 kts | 35° |
| 2026-04-22 06:14 | 56.09856 | 143.99646 | 37083 ft | 462 kts | 35° |
| 2026-04-22 06:14 | 56.15137 | 144.06194 | 37086 ft | 459 kts | 35° |
| 2026-04-22 06:15 | 56.20393 | 144.12732 | 37086 ft | 459 kts | 36° |
| 2026-04-22 06:15 | 56.25572 | 144.19194 | 37095 ft | 454 kts | 36° |
| 2026-04-22 06:16 | 56.30746 | 144.25731 | 37101 ft | 455 kts | 36° |
| 2026-04-22 06:16 | 56.35896 | 144.32385 | 37103 ft | 455 kts | 36° |
| 2026-04-22 06:17 | 56.41035 | 144.39045 | 37094 ft | 454 kts | 36° |
| 2026-04-22 06:17 | 56.46183 | 144.45719 | 37108 ft | 457 kts | 36° |
| 2026-04-22 06:18 | 56.51377 | 144.52467 | 37107 ft | 460 kts | 36° |
| 2026-04-22 06:18 | 56.56561 | 144.59222 | 37117 ft | 456 kts | 36° |
| 2026-04-22 06:19 | 56.61724 | 144.65981 | 37119 ft | 461 kts | 36° |
| 2026-04-22 06:19 | 56.66903 | 144.72780 | 37112 ft | 461 kts | 36° |
| 2026-04-22 06:20 | 56.72094 | 144.79615 | 37126 ft | 460 kts | 37° |
| 2026-04-22 06:20 | 56.77246 | 144.86420 | 37132 ft | 457 kts | 37° |
| 2026-04-22 06:21 | 56.82391 | 144.93243 | 37126 ft | 456 kts | 37° |
| 2026-04-22 06:21 | 56.87538 | 145.00094 | 37134 ft | 461 kts | 37° |
| 2026-04-22 06:22 | 56.92740 | 145.07040 | 37139 ft | 463 kts | 37° |
| 2026-04-22 06:22 | 56.97921 | 145.14018 | 37144 ft | 462 kts | 37° |
| 2026-04-22 06:23 | 57.03089 | 145.21047 | 37143 ft | 463 kts | 37° |
| 2026-04-22 06:23 | 57.08268 | 145.28070 | 37145 ft | 461 kts | 37° |
| 2026-04-22 06:24 | 57.15960 | 145.38498 | 37159 ft | 463 kts | 37° |
| 2026-04-22 06:25 | 57.21151 | 145.45566 | 37162 ft | 464 kts | 37° |
| 2026-04-22 06:25 | 57.26315 | 145.52625 | 37158 ft | 459 kts | 38° |
| 2026-04-22 06:26 | 57.31439 | 145.59655 | 37170 ft | 459 kts | 38° |
| 2026-04-22 06:26 | 57.36566 | 145.66710 | 37165 ft | 461 kts | 37° |
| 2026-04-22 06:27 | 57.41729 | 145.73842 | 37165 ft | 463 kts | 37° |
| 2026-04-22 06:27 | 57.46897 | 145.81011 | 37172 ft | 464 kts | 38° |
| 2026-04-22 06:28 | 57.52006 | 145.88114 | 37174 ft | 459 kts | 38° |
| 2026-04-22 06:28 | 57.57129 | 145.95276 | 37173 ft | 462 kts | 38° |
| 2026-04-22 06:29 | 57.62252 | 146.02462 | 37180 ft | 459 kts | 38° |
| 2026-04-22 06:29 | 57.67330 | 146.09680 | 37179 ft | 459 kts | 38° |
| 2026-04-22 06:30 | 57.72413 | 146.16910 | 37182 ft | 458 kts | 38° |
| 2026-04-22 06:30 | 57.77493 | 146.24119 | 37184 ft | 458 kts | 38° |
| 2026-04-22 06:31 | 57.82572 | 146.31346 | 37186 ft | 459 kts | 38° |
| 2026-04-22 06:31 | 57.87696 | 146.38655 | 37190 ft | 464 kts | 38° |
| 2026-04-22 06:32 | 57.92813 | 146.45981 | 37191 ft | 463 kts | 38° |
| 2026-04-22 06:32 | 57.97938 | 146.53347 | 37190 ft | 462 kts | 38° |
| 2026-04-22 06:33 | 58.02993 | 146.60639 | 37195 ft | 459 kts | 38° |
| 2026-04-22 06:33 | 58.08059 | 146.67972 | 37196 ft | 461 kts | 38° |
| 2026-04-22 06:34 | 58.13143 | 146.75365 | 37188 ft | 459 kts | 38° |
| 2026-04-22 06:34 | 58.18226 | 146.82785 | 37198 ft | 465 kts | 38° |
| 2026-04-22 06:35 | 58.23353 | 146.90292 | 37197 ft | 465 kts | 38° |
| 2026-04-22 06:35 | 58.28465 | 146.97809 | 37197 ft | 464 kts | 38° |
| 2026-04-22 06:36 | 58.33543 | 147.05392 | 37201 ft | 464 kts | 38° |
| 2026-04-22 06:36 | 58.38592 | 147.12926 | 37200 ft | 464 kts | 38° |
| 2026-04-22 06:37 | 58.43673 | 147.20493 | 37199 ft | 464 kts | 38° |
| 2026-04-22 06:37 | 58.48761 | 147.28085 | 37200 ft | 464 kts | 38° |
| 2026-04-22 06:38 | 58.53847 | 147.35704 | 37200 ft | 464 kts | 38° |
| 2026-04-22 06:38 | 58.58926 | 147.43340 | 37200 ft | 464 kts | 38° |
| 2026-04-22 06:39 | 58.63969 | 147.50948 | 37199 ft | 464 kts | 38° |
| 2026-04-22 06:39 | 58.69037 | 147.58619 | 37201 ft | 464 kts | 38° |
| 2026-04-22 06:40 | 58.74101 | 147.66318 | 37198 ft | 465 kts | 38° |
| 2026-04-22 06:40 | 58.79158 | 147.74087 | 37197 ft | 465 kts | 39° |
| 2026-04-22 06:41 | 58.83872 | 147.81375 | 37197 ft | 465 kts | 39° |
| 2026-04-22 06:41 | 58.88925 | 147.89176 | 37197 ft | 465 kts | 39° |
| 2026-04-22 06:42 | 58.93976 | 147.96980 | 37196 ft | 465 kts | 39° |
| 2026-04-22 06:42 | 58.99026 | 148.04805 | 37197 ft | 464 kts | 39° |
| 2026-04-22 06:43 | 59.04066 | 148.12644 | 37198 ft | 464 kts | 39° |
| 2026-04-22 06:43 | 59.09086 | 148.20533 | 37023 ft | 462 kts | 39° |
| 2026-04-22 06:43 | 59.11561 | 148.24439 | 36687 ft | 456 kts | 39° |
| 2026-04-22 06:44 | 59.14015 | 148.28315 | 36263 ft | 453 kts | 39° |
| 2026-04-22 06:44 | 59.16460 | 148.32175 | 35735 ft | 452 kts | 39° |
| 2026-04-22 06:44 | 59.18904 | 148.36035 | 35230 ft | 452 kts | 39° |
| 2026-04-22 06:44 | 59.21343 | 148.39893 | 34726 ft | 451 kts | 39° |
| 2026-04-22 06:45 | 59.23781 | 148.43758 | 34211 ft | 451 kts | 39° |
| 2026-04-22 06:45 | 59.26216 | 148.47625 | 33640 ft | 451 kts | 39° |
| 2026-04-22 06:45 | 59.28654 | 148.51501 | 33099 ft | 452 kts | 39° |
| 2026-04-22 06:45 | 59.31091 | 148.55386 | 32592 ft | 453 kts | 39° |
| 2026-04-22 06:46 | 59.33534 | 148.59288 | 32078 ft | 454 kts | 39° |
| 2026-04-22 06:46 | 59.35980 | 148.63203 | 31565 ft | 454 kts | 39° |
| 2026-04-22 06:46 | 59.38429 | 148.67130 | 31020 ft | 455 kts | 39° |
| 2026-04-22 06:46 | 59.40879 | 148.71065 | 30479 ft | 455 kts | 39° |
| 2026-04-22 06:47 | 59.43330 | 148.75009 | 29883 ft | 456 kts | 39° |
| 2026-04-22 06:47 | 59.45776 | 148.78960 | 29297 ft | 455 kts | 39° |
| 2026-04-22 06:47 | 59.48227 | 148.82922 | 28742 ft | 457 kts | 39° |
| 2026-04-22 06:47 | 59.50688 | 148.86903 | 28167 ft | 459 kts | 39° |
| 2026-04-22 06:48 | 59.53160 | 148.90908 | 27590 ft | 461 kts | 39° |
| 2026-04-22 06:48 | 59.55636 | 148.94930 | 27023 ft | 462 kts | 39° |
| 2026-04-22 06:48 | 59.58119 | 148.98972 | 26441 ft | 463 kts | 39° |
| 2026-04-22 06:48 | 59.59767 | 149.01661 | 26072 ft | 464 kts | 39° |
| 2026-04-22 06:49 | 59.62257 | 149.05732 | 25500 ft | 464 kts | 39° |
| 2026-04-22 06:49 | 59.65359 | 149.11485 | 24729 ft | 461 kts | 48° |
| 2026-04-22 06:49 | 59.67217 | 149.16623 | 24135 ft | 458 kts | 60° |
| 2026-04-22 06:49 | 59.68429 | 149.22434 | 23497 ft | 457 kts | 73° |
| 2026-04-22 06:50 | 59.69051 | 149.28582 | 22839 ft | 455 kts | 81° |
| 2026-04-22 06:50 | 59.69397 | 149.34792 | 22223 ft | 452 kts | 84° |
| 2026-04-22 06:50 | 59.69665 | 149.40956 | 21625 ft | 447 kts | 84° |
| 2026-04-22 06:50 | 59.69845 | 149.45006 | 21237 ft | 445 kts | 83° |
| 2026-04-22 06:51 | 59.70144 | 149.51069 | 20656 ft | 440 kts | 83° |
| 2026-04-22 06:51 | 59.70474 | 149.57062 | 20084 ft | 436 kts | 82° |
| 2026-04-22 06:51 | 59.70824 | 149.63007 | 19517 ft | 432 kts | 82° |
| 2026-04-22 06:51 | 59.71182 | 149.68888 | 18954 ft | 428 kts | 82° |
| 2026-04-22 06:52 | 59.71543 | 149.74714 | 18384 ft | 425 kts | 82° |
| 2026-04-22 06:52 | 59.71897 | 149.80498 | 17765 ft | 420 kts | 82° |
| 2026-04-22 06:52 | 59.72245 | 149.86203 | 17196 ft | 415 kts | 82° |
| 2026-04-22 06:52 | 59.72586 | 149.91859 | 16630 ft | 411 kts | 82° |
| 2026-04-22 06:53 | 59.72922 | 149.97451 | 16100 ft | 407 kts | 82° |
| 2026-04-22 06:53 | 59.73253 | 150.02996 | 15565 ft | 403 kts | 82° |
| 2026-04-22 06:53 | 59.73577 | 150.08478 | 15046 ft | 399 kts | 82° |
| 2026-04-22 06:53 | 59.73896 | 150.13910 | 14513 ft | 395 kts | 82° |
| 2026-04-22 06:54 | 59.74207 | 150.19294 | 14009 ft | 391 kts | 83° |
| 2026-04-22 06:54 | 59.74500 | 150.24625 | 13466 ft | 387 kts | 83° |
| 2026-04-22 06:54 | 59.74785 | 150.29907 | 12955 ft | 384 kts | 83° |
| 2026-04-22 06:54 | 59.75069 | 150.35146 | 12468 ft | 380 kts | 83° |
| 2026-04-22 06:55 | 59.75354 | 150.40334 | 11970 ft | 377 kts | 83° |
| 2026-04-22 06:55 | 59.75409 | 150.41318 | 11877 ft | 376 kts | 83° |
| 2026-04-22 06:57 | 59.75522 | 150.43369 | 11694 ft | 375 kts | 83° |
| 2026-04-22 06:58 | 59.75805 | 150.48491 | 11318 ft | 372 kts | 83° |
| 2026-04-22 06:58 | 59.76079 | 150.53488 | 11163 ft | 362 kts | 83° |
| 2026-04-22 06:58 | 59.76336 | 150.58272 | 11048 ft | 337 kts | 83° |
| 2026-04-22 06:58 | 59.76574 | 150.62728 | 10930 ft | 314 kts | 83° |
| 2026-04-22 06:59 | 59.76797 | 150.66897 | 10806 ft | 294 kts | 83° |
| 2026-04-22 06:59 | 59.77007 | 150.70795 | 10677 ft | 276 kts | 83° |
| 2026-04-22 06:59 | 59.77208 | 150.74545 | 10440 ft | 274 kts | 83° |
| 2026-04-22 06:59 | 59.77409 | 150.78300 | 10022 ft | 273 kts | 83° |
| 2026-04-22 07:00 | 59.77607 | 150.82027 | 9548 ft | 270 kts | 83° |
| 2026-04-22 07:00 | 59.77803 | 150.85706 | 9116 ft | 266 kts | 83° |
| 2026-04-22 07:00 | 59.77991 | 150.89340 | 8711 ft | 264 kts | 84° |
| 2026-04-22 07:00 | 59.78174 | 150.92959 | 8275 ft | 264 kts | 84° |
| 2026-04-22 07:01 | 59.78356 | 150.96578 | 7825 ft | 262 kts | 84° |
| 2026-04-22 07:01 | 59.78537 | 151.00144 | 7427 ft | 257 kts | 84° |
| 2026-04-22 07:01 | 59.78716 | 151.03662 | 7058 ft | 256 kts | 84° |
| 2026-04-22 07:01 | 59.78892 | 151.07130 | 6699 ft | 255 kts | 84° |
| 2026-04-22 07:02 | 59.79071 | 151.10634 | 6302 ft | 255 kts | 83° |
| 2026-04-22 07:02 | 59.79250 | 151.14113 | 5957 ft | 252 kts | 82° |
| 2026-04-22 07:02 | 59.79647 | 151.17462 | 5614 ft | 250 kts | 66° |
| 2026-04-22 07:02 | 59.80632 | 151.20254 | 5295 ft | 249 kts | 41° |
| 2026-04-22 07:03 | 59.82142 | 151.21861 | 4968 ft | 249 kts | 15° |
| 2026-04-22 07:03 | 59.83844 | 151.22354 | 4720 ft | 246 kts | 5° |
| 2026-04-22 07:03 | 59.85561 | 151.22556 | 4679 ft | 248 kts | 1° |
| 2026-04-22 07:03 | 59.87273 | 151.22147 | 4580 ft | 251 kts | 343° |
| 2026-04-22 07:04 | 59.88775 | 151.20397 | 4176 ft | 253 kts | 316° |
| 2026-04-22 07:04 | 59.89671 | 151.17422 | 3770 ft | 252 kts | 287° |
| 2026-04-22 07:04 | 59.89931 | 151.14058 | 3593 ft | 239 kts | 275° |
| 2026-04-22 07:04 | 59.90030 | 151.10799 | 3571 ft | 238 kts | 274° |
| 2026-04-22 07:05 | 59.90118 | 151.07496 | 3576 ft | 240 kts | 274° |
| 2026-04-22 07:05 | 59.90205 | 151.04170 | 3518 ft | 241 kts | 274° |
| 2026-04-22 07:05 | 59.90292 | 151.00892 | 3051 ft | 233 kts | 274° |
| 2026-04-22 07:05 | 59.90371 | 150.97787 | 2839 ft | 213 kts | 273° |
| 2026-04-22 07:06 | 59.90456 | 150.94967 | 2643 ft | 197 kts | 274° |
| 2026-04-22 07:06 | 59.90557 | 150.92272 | 2501 ft | 195 kts | 273° |
| 2026-04-22 07:06 | 59.90618 | 150.89579 | 2256 ft | 194 kts | 271° |
| 2026-04-22 07:06 | 59.90667 | 150.86972 | 1929 ft | 179 kts | 272° |
| 2026-04-22 07:07 | 59.90749 | 150.84635 | 1615 ft | 164 kts | 272° |
| 2026-04-22 07:07 | 59.90813 | 150.82402 | 1375 ft | 159 kts | 271° |
| 2026-04-22 07:07 | 59.90869 | 150.80223 | 1153 ft | 156 kts | 272° |
| 2026-04-22 07:07 | 59.90929 | 150.78052 | 936 ft | 156 kts | 272° |
| 2026-04-22 07:08 | 59.90987 | 150.75900 | 695 ft | 156 kts | 273° |
| 2026-04-22 07:08 | 59.91045 | 150.73806 | 589 ft | 137 kts | 272° |
| 2026-04-22 07:08 | 59.91090 | 150.72227 | 588 ft | 92 kts | 274° |
| 2026-04-22 07:08 | 59.91113 | 150.71480 | 592 ft | 20 kts | 274° |